Flight Track Log - Related Links

Times and Time Zones

All times are in EDT time to prevent confusion due to time zone crossing. See the FLG3862 flight status page for this flight to view local times or setup timezone preferences in your user account.

Time Position Orientation Groundspeed Altitude Reporting Facility
EDT Latitude Longitude Course Direction KTS MPH feet Rate Location/Type
Thu 11:19:19 AM 42.2100 -83.3531 90° East 136 157 1,400  Level Cleveland Center
Thu 11:20:19 AM 42.1644 -83.3397 168° South 179 206 4,300 2,479 Climbing Cleveland Center
Thu 11:21:20 AM 42.1136 -83.2928 146° Southeast 289 333 6,400 2,348 Climbing Cleveland Center
Thu 11:22:00 AM 42.3193 -82.7239 82° East  Level FlightAware Approximate
Thu 11:22:14 AM 42.0886 -83.1964 109° East 304 350 8,800  Level Cleveland Center
Thu 11:23:00 AM 42.3381 -82.5643 71° East  Level FlightAware Approximate
Thu 11:23:14 AM 42.1122 -83.0772 75° East 337 388 10,600  Level Cleveland Center
Thu 11:24:00 AM 42.3667 -82.4119 90° East  Level FlightAware Approximate
Thu 11:24:14 AM 42.1669 -82.9419 61° Northeast 353 406 11,800  Level Cleveland Center
Thu 11:25:14 AM 42.2261 -82.8011 60° Northeast 393 452 13,000 1,250 Climbing Cleveland Center
Thu 11:26:14 AM 42.2853 -82.6544 61° Northeast 412 474 14,300 1,300 Climbing Cleveland Center
Thu 11:27:14 AM 42.3442 -82.5075 61° Northeast 433 498 15,600 1,150 Climbing Cleveland Center
Thu 11:28:14 AM 42.3653 -82.3453 80° East 427 491 16,600 1,000 Climbing Cleveland Center
Thu 11:29:14 AM 42.3553 -82.1792 95° East 427 491 17,600 1,100 Climbing Cleveland Center
Thu 11:30:14 AM 42.3511 -82.0217 92° East 440 506 18,800 1,100 Climbing Cleveland Center
Thu 11:31:14 AM 42.3428 -81.8500 94° East 456 525 19,800 1,000 Climbing Cleveland Center
Thu 11:32:14 AM 42.3361 -81.6814 93° East 456 525 20,800 1,000 Climbing Cleveland Center
Thu 11:33:14 AM 42.3272 -81.5128 94° East 456 525 21,800 1,000 Climbing Cleveland Center
Thu 11:34:14 AM 42.3181 -81.3272 94° East 456 525 22,800 1,000 Climbing Cleveland Center
Thu 11:35:14 AM 42.3086 -81.1586 94° East 456 525 23,800 850 Climbing Cleveland Center
Thu 11:36:14 AM 42.3011 -80.9875 93° East 456 525 24,500 700 Climbing Cleveland Center
Thu 11:37:14 AM 42.2911 -80.8189 95° East 456 525 25,200 600 Climbing Cleveland Center
Thu 11:38:14 AM 42.2808 -80.6450 95° East 462 532 25,700 500 Climbing Cleveland Center
Thu 11:39:14 AM 42.2725 -80.4708 94° East 468 539 26,200 500 Climbing Cleveland Center
Thu 11:40:14 AM 42.2619 -80.2942 95° East 463 533 26,700 500 Climbing Cleveland Center
Thu 11:41:14 AM 42.2697 -80.1203 86° East 463 533 27,200 500 Climbing Cleveland Center
Thu 11:42:14 AM 42.3106 -79.9514 72° East 463 533 27,700 500 Climbing Cleveland Center
Thu 11:43:14 AM 42.3533 -79.7769 72° East 475 547 28,200 500 Climbing Cleveland Center
Thu 11:44:14 AM 42.3956 -79.6047 72° East 480 552 28,700 400 Climbing Cleveland Center
Thu 11:45:14 AM 42.4358 -79.4325 72° East 480 552 29,000 150 Climbing Cleveland Center
Thu 11:46:14 AM 42.4758 -79.2769 71° East 480 552 29,000  Level Cleveland Center
Thu 11:47:14 AM 42.5194 -79.0986 72° East 486 559 29,000  Level Cleveland Center
Thu 11:48:14 AM 42.5589 -78.9231 73° East 486 559 29,000  Level Cleveland Center
Thu 11:49:14 AM 42.6019 -78.7442 72° East 486 559 29,000  Level Cleveland Center
Thu 11:50:14 AM 42.6447 -78.5678 72° East 486 559 29,000  Level Cleveland Center
Thu 11:51:14 AM 42.6853 -78.3858 73° East 486 559 29,000  Level Cleveland Center
Thu 11:52:14 AM 42.7256 -78.2033 73° East 492 566 29,000  Level Cleveland Center
Thu 11:53:14 AM 42.7675 -78.0264 72° East 492 566 29,000  Level Cleveland Center
Thu 11:54:14 AM 42.8072 -77.8464 73° East 492 566 29,000  Level Cleveland Center
Thu 11:55:14 AM 42.8464 -77.6636 74° East 498 573 29,000  Level Cleveland Center
Thu 11:56:14 AM 42.8956 -77.4656 71° East 498 573 29,000  Level Cleveland Center
Thu 11:58:02 AM 43.0272 -77.1783 58° Northeast 510 587 29,000  Level Boston Center
Thu 11:59:03 AM 43.0947 -77.0044 62° Northeast 505 581 29,000  Level Boston Center
Thu 12:00:03 PM 43.1619 -76.8328 62° Northeast 505 581 29,000  Level Boston Center
Thu 12:01:00 PM 43.2269 -76.6608 63° Northeast 505 581 29,000  Level Boston Center
Thu 12:02:01 PM 43.2936 -76.4883 62° Northeast 505 581 29,000  Level Boston Center
Thu 12:03:02 PM 43.3581 -76.3156 63° Northeast 505 581 29,000  Level Boston Center
Thu 12:04:03 PM 43.4242 -76.1425 62° Northeast 505 581 29,000  Level Boston Center
Thu 12:05:03 PM 43.4792 -75.9856 64° Northeast 505 581 29,000  Level Boston Center
Thu 12:06:00 PM 43.5447 -75.8147 62° Northeast 505 581 29,000  Level Boston Center
Thu 12:07:01 PM 43.6081 -75.6403 63° Northeast 505 581 29,000  Level Boston Center
Thu 12:08:01 PM 43.6733 -75.4631 63° Northeast 505 581 29,000  Level Boston Center
Thu 12:09:02 PM 43.7364 -75.2850 64° Northeast 505 581 29,000  Level Boston Center
Thu 12:10:02 PM 43.7878 -75.1436 63° Northeast 505 581 29,000 -706 Level Boston Center
Thu 12:11:01 PM 43.8614 -74.9308 64° Northeast 505 581 27,600 -1,850 Descending Boston Center
Thu 12:12:02 PM 43.9236 -74.7489 65° Northeast 505 581 25,300 -2,213 Descending Boston Center
Thu 12:13:03 PM 43.9853 -74.5783 63° Northeast 500 575 23,100 -2,218 Descending Boston Center
Thu 12:14:01 PM 44.0444 -74.4100 64° Northeast 494 568 20,900 -2,085 Descending Boston Center
Thu 12:15:01 PM 44.1014 -74.2442 64° Northeast 478 550 19,000 -1,736 Descending Boston Center
Thu 12:16:02 PM 44.1622 -74.0664 64° Northeast 473 544 17,400 -1,967 Descending Boston Center
Thu 12:17:03 PM 44.2081 -73.9286 65° Northeast 455 524 15,000 -2,695 Descending Boston Center
Thu 12:18:00 PM 44.2639 -73.7794 62° Northeast 438 504 12,100 -2,441 Descending Boston Center
Thu 12:19:01 PM 44.3258 -73.6472 57° Northeast 390 449 10,200 -2,115 Descending Boston Center
Thu 12:20:02 PM 44.3789 -73.5553 51° Northeast 334 384 7,800 -2,459 Descending Boston Center
Thu 12:21:03 PM 44.4419 -73.4811 40° Northeast 293 337 5,200 -1,866 Descending Boston Center
Thu 12:22:01 PM 44.4906 -73.4092 47° Northeast 280 322 4,100 -1,059 Descending Boston Center
Thu 12:23:02 PM 44.5206 -73.3136 66° East 252 290 3,100 -984 Descending Boston Center

Login

Don't have an account? Register now (free) for customized features, flight alerts, and more!